Chesterfield, New Jersey
Current Conditions -  °F | °C
As of 8:58 AM on Friday 24 Oct 2014 (Local Time) from KWRI Reporting Station
Overcast Overcast  
Wind Chill: 55°   Ceiling: 3100
Heat Index: 55°   Visibility: 10mi
Dew Point: 46°   Wind: 12mph
Humidity: 72%   Direction: 320°NW
Pressure: 29.82"   Gusts: 17mph
Location:  40.144°N, 74.6589°W
Report Text: KWRI 241258Z AUTO 32010G15KT 10SM OVC031 13/08 A2982 RMK AO2 SLP101 T01260076
Loading
Personal Weather Stations






























Interactive Weather Map
Tropical Storm Tracking
New forecast layout! Learn more

10-Day Weather Forecast

Advertisements
Track Severe Weather on mobile